To NAV CANADA Home Page Login to a new session Search on AWWS site Disclaimer Vers la page française équivalente Tips FAQ What's new on the site To the Forecasts and Observations / NOTAM section To "File a Flight Plan" website Publications and other links Update of the User's profile FIC Telephone Numbers My Weather Data Folder Route Weather Data Regional Weather Data Local Weather Data To the Forecasts and Observations / NOTAM section
Request Generated 05/17/2021 at 22:53:24 UTC . Weather information available at that time is displayed.

METAR/TAF

OTTAWA/MACDONALD-CARTIER INTL/ON    

METAR CYOW 172200Z 20008G19KT 15SM FEW050 SCT120 BKN250 24/06 A3015 RMK CU2AC2CI1 SLP214 DENSITY ALT 1300FT=
METAR CYOW 172100Z 22011G17KT 200V270 15SM SCT050 BKN110 BKN250 24/05 A3017 RMK CU4AC1CI1 SLP218 DENSITY ALT 1300FT=
METAR CYOW 172000Z 20008G19KT 15SM SCT050TCU BKN110 24/04 A3017 RMK TCU3AC3 SLP221 DENSITY ALT 1200FT=

TAF CYOW 172038Z 1721/1818 20008G18KT P6SM FEW050 BKN110
BECMG 1723/1801 22008KT
FM180200 22010KT P6SM BKN080 BKN140
BECMG 1804/1806 28008KT SCT120
RMK NXT FCST BY 180000Z=
Your time UTC time
Weather data provided by Environment Canada and NAV CANADA